createdAt,value
2022-09-17T00:00:47.984Z,99641.16
2022-09-17T00:03:15.516Z,99647.38
2022-09-17T00:05:42.636Z,99640.72
2022-09-17T00:08:13.817Z,99651.91
2022-09-17T00:10:43.093Z,99651.09
2022-09-17T00:13:11.682Z,99658.06
2022-09-17T00:15:43.704Z,99652.66
2022-09-17T00:18:11.892Z,99659.63
2022-09-17T00:20:44.340Z,99658.97
2022-09-17T00:23:11.958Z,99658.78
2022-09-17T00:25:42.879Z,99659.84
2022-09-17T00:28:10.274Z,99657.72
2022-09-17T00:30:44.004Z,99660.25
2022-09-17T00:33:13.012Z,99662.09
2022-09-17T00:35:39.534Z,99659.41
2022-09-17T00:38:06.700Z,99657.97
2022-09-17T00:40:33.457Z,99662.94
2022-09-17T00:43:00.114Z,99663.13
2022-09-17T00:45:28.174Z,99662.66
2022-09-17T00:48:02.000Z,99673.50
2022-09-17T00:50:38.297Z,99666.25
2022-09-17T00:53:16.148Z,99661.91
2022-09-17T00:55:48.703Z,99673.31
2022-09-17T00:58:18.675Z,99657.72
2022-09-17T01:00:46.771Z,99666.78
2022-09-17T01:03:13.966Z,99668.72
2022-09-17T01:05:47.081Z,99673.81
2022-09-17T01:08:39.671Z,99668.25
2022-09-17T01:11:12.211Z,99671.56
2022-09-17T01:14:00.554Z,99687.34
2022-09-17T01:16:58.962Z,99686.06
2022-09-17T01:20:03.377Z,99681.78
2022-09-17T01:22:29.876Z,99673.00
2022-09-17T01:25:23.012Z,99683.97
2022-09-17T01:28:21.317Z,99677.91
2022-09-17T01:31:24.913Z,99677.34
2022-09-17T01:34:03.101Z,99679.06
2022-09-17T01:36:45.385Z,99684.97
2022-09-17T01:39:40.041Z,99681.00
2022-09-17T01:42:31.435Z,99686.66
2022-09-17T01:45:16.985Z,99680.38
2022-09-17T01:47:49.174Z,99690.97
2022-09-17T01:50:25.863Z,99692.72
2022-09-17T01:52:55.221Z,99694.97
2022-09-17T01:55:25.780Z,99687.91
2022-09-17T01:58:07.740Z,99700.41
2022-09-17T02:00:36.627Z,99711.34
2022-09-17T02:03:23.619Z,99705.38
2022-09-17T02:05:58.049Z,99712.47
2022-09-17T02:08:48.084Z,99712.53
2022-09-17T02:11:19.425Z,99706.50
2022-09-17T02:14:18.531Z,99707.59
2022-09-17T02:16:57.359Z,99704.66
2022-09-17T02:19:29.727Z,99698.66
2022-09-17T02:22:18.596Z,99701.28
2022-09-17T02:25:14.709Z,99704.44
2022-09-17T02:28:06.598Z,99708.84
2022-09-17T02:30:34.746Z,99711.34
2022-09-17T02:33:04.786Z,99717.97
2022-09-17T02:35:33.501Z,99713.44
2022-09-17T02:38:01.056Z,99713.88
2022-09-17T02:40:31.869Z,99714.22
2022-09-17T02:43:25.166Z,99708.72
2022-09-17T02:46:29.970Z,99714.59
2022-09-17T02:49:28.677Z,99713.28
2022-09-17T02:52:09.244Z,99713.81
2022-09-17T02:54:52.386Z,99704.38
2022-09-17T02:57:37.907Z,99704.28
2022-09-17T03:00:12.441Z,99709.22
2022-09-17T03:02:45.587Z,99707.19
2022-09-17T03:05:14.381Z,99711.41
2022-09-17T03:07:41.222Z,99712.19
2022-09-17T03:10:08.195Z,99710.56
2022-09-17T03:12:35.724Z,99708.94
2022-09-17T03:15:03.489Z,99708.25
2022-09-17T03:17:30.567Z,99723.53
2022-09-17T03:19:57.451Z,99719.22
2022-09-17T03:22:24.035Z,99714.41
2022-09-17T03:24:50.643Z,99715.44
2022-09-17T03:27:17.156Z,99723.44
2022-09-17T03:29:44.009Z,99724.03
2022-09-17T03:32:10.660Z,99724.34
2022-09-17T03:34:37.214Z,99724.75
2022-09-17T03:37:03.743Z,99721.81
2022-09-17T03:39:30.839Z,99708.06
2022-09-17T03:41:57.803Z,99710.84
2022-09-17T03:44:24.416Z,99718.53
2022-09-17T03:46:51.111Z,99719.88
2022-09-17T03:49:17.761Z,99721.59
2022-09-17T03:51:44.340Z,99724.72
2022-09-17T03:54:10.964Z,99726.56
2022-09-17T03:56:37.503Z,99733.19
2022-09-17T03:59:04.045Z,99737.09
2022-09-17T04:01:30.853Z,99738.16
2022-09-17T04:03:57.515Z,99729.59
2022-09-17T04:06:24.285Z,99741.06
2022-09-17T04:08:50.826Z,99736.59
2022-09-17T04:11:17.454Z,99734.34
2022-09-17T04:13:44.272Z,99739.28
2022-09-17T04:16:11.327Z,99742.72
2022-09-17T04:18:40.052Z,99747.25
2022-09-17T04:21:09.528Z,99752.41
2022-09-17T04:23:36.016Z,99747.59
2022-09-17T04:26:03.235Z,99747.78
2022-09-17T04:28:30.536Z,99758.53
2022-09-17T04:30:58.013Z,99749.47
2022-09-17T04:33:25.434Z,99766.72
2022-09-17T04:35:55.272Z,99770.38
2022-09-17T04:38:22.462Z,99774.25
2022-09-17T04:40:49.164Z,99762.66
2022-09-17T04:43:15.783Z,99778.31
2022-09-17T04:45:46.596Z,99779.72
2022-09-17T04:48:13.200Z,99777.53
2022-09-17T04:50:39.717Z,99789.56
2022-09-17T04:53:06.311Z,99782.03
2022-09-17T04:55:32.992Z,99784.91
2022-09-17T04:58:02.707Z,99776.13
2022-09-17T05:00:29.307Z,99777.75
2022-09-17T05:02:56.111Z,99789.50
2022-09-17T05:05:24.209Z,99781.31
2022-09-17T05:07:50.864Z,99784.84
2022-09-17T05:10:20.575Z,99782.22
2022-09-17T05:12:54.299Z,99776.19
2022-09-17T05:15:25.908Z,99779.34
2022-09-17T05:17:52.466Z,99774.81
2022-09-17T05:20:19.445Z,99771.25
2022-09-17T05:22:54.147Z,99774.72
2022-09-17T05:25:24.480Z,99785.78
2022-09-17T05:27:52.629Z,99778.50
2022-09-17T05:30:19.593Z,99791.53
2022-09-17T05:32:47.439Z,99785.41
2022-09-17T05:35:14.175Z,99786.41
2022-09-17T05:37:41.167Z,99783.88
2022-09-17T05:40:09.152Z,99781.25
2022-09-17T05:42:36.317Z,99784.53
2022-09-17T05:45:03.801Z,99784.97
2022-09-17T05:47:30.356Z,99784.63
2022-09-17T05:49:56.909Z,99794.53
2022-09-17T05:52:28.402Z,99797.09
2022-09-17T05:54:55.812Z,99796.56
2022-09-17T05:57:22.419Z,99797.25
2022-09-17T05:59:49.307Z,99801.59
2022-09-17T06:02:16.345Z,99798.47
2022-09-17T06:04:43.135Z,99805.09
2022-09-17T06:07:10.425Z,99807.88
2022-09-17T06:09:37.659Z,99812.13
2022-09-17T06:12:05.274Z,99821.81
2022-09-17T06:14:31.866Z,99818.22
2022-09-17T06:16:58.400Z,99824.03
2022-09-17T06:19:24.973Z,99826.00
2022-09-17T06:21:51.826Z,99831.22
2022-09-17T06:24:18.392Z,99828.47
2022-09-17T06:26:45.278Z,99846.13
2022-09-17T06:29:14.913Z,99846.00
2022-09-17T06:31:44.309Z,99840.53
2022-09-17T06:34:11.433Z,99850.91
2022-09-17T06:36:37.968Z,99858.31
2022-09-17T06:39:04.856Z,99863.59
2022-09-17T06:41:31.578Z,99873.06
2022-09-17T06:43:58.682Z,99869.22
2022-09-17T06:46:25.443Z,99873.38
2022-09-17T06:48:52.185Z,99876.69
2022-09-17T06:51:18.703Z,99880.47
2022-09-17T06:53:45.619Z,99877.16
2022-09-17T06:56:12.235Z,99878.78
2022-09-17T06:58:39.774Z,99868.66
2022-09-17T07:01:06.711Z,99873.81
2022-09-17T07:03:34.460Z,99863.56
2022-09-17T07:06:01.000Z,99866.75
2022-09-17T07:08:27.604Z,99864.72
2022-09-17T07:10:58.287Z,99875.34
2022-09-17T07:13:25.798Z,99873.09
2022-09-17T07:16:00.747Z,99869.13
2022-09-17T07:18:28.015Z,99870.91
2022-09-17T07:21:03.074Z,99861.09
2022-09-17T07:23:35.317Z,99858.78
2022-09-17T07:26:05.748Z,99858.81
2022-09-17T07:28:32.712Z,99862.63
2022-09-17T07:31:05.286Z,99858.13
2022-09-17T07:33:32.750Z,99862.31
2022-09-17T07:36:02.135Z,99861.94
2022-09-17T07:38:30.158Z,99857.34
2022-09-17T07:41:01.755Z,99861.53
2022-09-17T07:43:31.155Z,99860.91
2022-09-17T07:45:59.277Z,99862.63
2022-09-17T07:48:26.925Z,99872.63
2022-09-17T07:50:54.540Z,99867.50
2022-09-17T07:53:22.852Z,99865.91
2022-09-17T07:55:54.848Z,99865.88
2022-09-17T07:58:30.554Z,99864.56
2022-09-17T08:01:05.615Z,99864.06
2022-09-17T08:03:32.438Z,99870.00
2022-09-17T08:06:08.140Z,99879.69
2022-09-17T08:08:36.622Z,99871.53
2022-09-17T08:11:23.638Z,99867.75
2022-09-17T08:13:59.836Z,99871.72
2022-09-17T08:16:26.695Z,99860.97
2022-09-17T08:18:57.719Z,99858.22
2022-09-17T08:21:25.323Z,99841.28
2022-09-17T08:23:51.852Z,99843.25
2022-09-17T08:26:21.534Z,99846.38
2022-09-17T08:28:55.769Z,99849.94
2022-09-17T08:31:24.756Z,99843.28
2022-09-17T08:33:51.364Z,99843.63
2022-09-17T08:36:19.607Z,99855.28
2022-09-17T08:38:46.653Z,99848.41
2022-09-17T08:41:34.218Z,99848.22
2022-09-17T08:44:04.538Z,99860.75
2022-09-17T08:46:34.180Z,99846.22
2022-09-17T08:49:21.792Z,99849.50
2022-09-17T08:52:02.360Z,99851.34
2022-09-17T08:54:59.136Z,99851.59
2022-09-17T08:58:04.112Z,99847.41
2022-09-17T09:00:42.810Z,99851.94
2022-09-17T09:03:46.523Z,99843.47
2022-09-17T09:06:15.559Z,99833.66
2022-09-17T09:09:01.899Z,99835.88
2022-09-17T09:11:30.986Z,99821.56
2022-09-17T09:14:27.249Z,99819.03
2022-09-17T09:16:56.916Z,99826.75
2022-09-17T09:19:33.977Z,99825.47
2022-09-17T09:22:04.536Z,99828.59
2022-09-17T09:24:46.001Z,99825.81
2022-09-17T09:27:26.323Z,99829.81
2022-09-17T09:30:07.389Z,99819.03
2022-09-17T09:32:45.966Z,99814.91
2022-09-17T09:35:19.157Z,99812.72
2022-09-17T09:37:54.806Z,99817.56
2022-09-17T09:40:34.596Z,99819.31
2022-09-17T09:43:14.811Z,99791.66
2022-09-17T09:46:00.170Z,99805.56
2022-09-17T09:48:31.207Z,99802.13
2022-09-17T09:51:20.375Z,99802.31
2022-09-17T09:54:18.474Z,99799.72
2022-09-17T09:56:55.087Z,99791.34
2022-09-17T09:59:21.603Z,99797.97
2022-09-17T10:01:49.477Z,99798.13
2022-09-17T10:04:25.032Z,99799.22
2022-09-17T10:07:06.340Z,99796.97
2022-09-17T10:09:35.322Z,99807.34
2022-09-17T10:12:16.148Z,99819.53
2022-09-17T10:14:45.084Z,99818.16
2022-09-17T10:17:21.989Z,99833.50
2022-09-17T10:20:06.041Z,99819.31
2022-09-17T10:22:35.802Z,99835.84
2022-09-17T10:25:05.757Z,99841.50
2022-09-17T10:27:34.181Z,99845.00
2022-09-17T10:30:15.338Z,99844.69
2022-09-17T10:32:41.924Z,99848.44
2022-09-17T10:35:15.004Z,99837.66
2022-09-17T10:37:46.881Z,99839.31
2022-09-17T10:40:19.281Z,99833.03
2022-09-17T10:43:14.118Z,99833.88
2022-09-17T10:45:44.449Z,99840.78
2022-09-17T10:48:20.364Z,99840.75
2022-09-17T10:50:52.942Z,99846.28
2022-09-17T10:53:23.332Z,99845.47
2022-09-17T10:56:16.984Z,99842.47
2022-09-17T10:59:01.205Z,99840.94
2022-09-17T11:01:52.927Z,99839.53
2022-09-17T11:04:35.183Z,99835.97
2022-09-17T11:07:24.602Z,99834.34
2022-09-17T11:10:05.576Z,99830.13
2022-09-17T11:12:51.716Z,99816.88
2022-09-17T11:15:24.535Z,99808.50
2022-09-17T11:18:21.732Z,99810.16
2022-09-17T11:21:03.764Z,99819.59
2022-09-17T11:24:10.070Z,99809.28
2022-09-17T11:26:48.715Z,99813.44
2022-09-17T11:29:53.998Z,99811.88
2022-09-17T11:32:32.764Z,99805.84
2022-09-17T11:35:08.708Z,99804.53
2022-09-17T11:38:04.898Z,99801.81
2022-09-17T11:41:10.519Z,99793.47
2022-09-17T11:43:43.415Z,99790.41
2022-09-17T11:46:17.387Z,99798.66
2022-09-17T11:48:53.102Z,99768.53
2022-09-17T11:51:41.996Z,99778.16
2022-09-17T11:54:23.817Z,99788.75
2022-09-17T11:57:12.022Z,99789.03
2022-09-17T11:59:46.588Z,99789.66
2022-09-17T12:02:22.514Z,99780.50
2022-09-17T12:05:04.801Z,99775.47
2022-09-17T12:08:04.551Z,99774.41
2022-09-17T12:10:50.600Z,99761.94
2022-09-17T12:13:42.088Z,99750.50
2022-09-17T12:16:17.198Z,99749.75
2022-09-17T12:19:02.002Z,99754.09
2022-09-17T12:21:33.979Z,99746.66
2022-09-17T12:24:12.909Z,99757.78
2022-09-17T12:26:57.536Z,99738.25
2022-09-17T12:29:36.188Z,99732.47
2022-09-17T12:32:29.550Z,99734.44
2022-09-17T12:35:19.449Z,99723.38
2022-09-17T12:37:59.374Z,99726.88
2022-09-17T12:40:57.745Z,99715.31
2022-09-17T12:43:48.660Z,99719.44
2022-09-17T12:46:27.875Z,99721.53
2022-09-17T12:49:23.231Z,99730.53
2022-09-17T12:52:09.356Z,99729.31
2022-09-17T12:55:01.662Z,99716.03
2022-09-17T12:57:55.504Z,99714.69
2022-09-17T13:00:22.197Z,99713.59
2022-09-17T13:03:19.884Z,99708.56
2022-09-17T13:06:24.754Z,99713.44
2022-09-17T13:09:18.550Z,99705.41
2022-09-17T13:12:03.538Z,99710.00
2022-09-17T13:15:01.762Z,99710.63
2022-09-17T13:18:06.361Z,99703.31
2022-09-17T13:20:54.496Z,99695.75
2022-09-17T13:23:43.544Z,99700.78
2022-09-17T13:26:13.867Z,99699.75
2022-09-17T13:28:51.162Z,99702.81
2022-09-17T13:31:44.523Z,99706.25
2022-09-17T13:34:32.001Z,99698.28
2022-09-17T13:37:18.364Z,99700.41
2022-09-17T13:39:47.858Z,99698.16
2022-09-17T13:42:14.628Z,99698.06
2022-09-17T13:44:46.132Z,99693.50
2022-09-17T13:47:26.240Z,99691.84
2022-09-17T13:49:59.257Z,99694.72
2022-09-17T13:52:43.446Z,99697.03
2022-09-17T13:55:32.255Z,99694.50
2022-09-17T13:57:58.966Z,99699.84
2022-09-17T14:00:54.820Z,99697.22
2022-09-17T14:03:46.476Z,99689.63
2022-09-17T14:06:15.640Z,99698.84
2022-09-17T14:08:45.297Z,99703.34
2022-09-17T14:11:24.283Z,99704.31
2022-09-17T14:14:10.437Z,99699.50
2022-09-17T14:16:42.824Z,99703.25
2022-09-17T14:19:15.389Z,99696.75
2022-09-17T14:22:19.614Z,99705.84
2022-09-17T14:24:49.602Z,99715.69
2022-09-17T14:27:32.698Z,99708.44
2022-09-17T14:30:22.738Z,99708.16
2022-09-17T14:33:14.878Z,99706.84
2022-09-17T14:35:46.875Z,99709.72
2022-09-17T14:38:20.261Z,99708.66
2022-09-17T14:40:55.434Z,99712.34
2022-09-17T14:43:32.144Z,99703.09
2022-09-17T14:45:58.963Z,99702.56
2022-09-17T14:48:35.256Z,99704.88
2022-09-17T14:51:26.589Z,99697.16
2022-09-17T14:54:05.646Z,99703.16
2022-09-17T14:56:37.672Z,99706.47
2022-09-17T14:59:04.513Z,99707.56
2022-09-17T15:01:31.494Z,99696.38
2022-09-17T15:04:13.635Z,99705.69
2022-09-17T15:06:42.311Z,99706.13
2022-09-17T15:09:25.572Z,99711.19
2022-09-17T15:11:59.838Z,99722.13
2022-09-17T15:14:32.010Z,99719.88
2022-09-17T15:17:01.320Z,99714.44
2022-09-17T15:19:41.271Z,99720.50
2022-09-17T15:22:32.492Z,99715.94
2022-09-17T15:25:04.740Z,99709.97
2022-09-17T15:27:38.701Z,99719.34
2022-09-17T15:30:12.597Z,99711.78
2022-09-17T15:32:44.222Z,99711.41
2022-09-17T15:35:14.120Z,99704.22
2022-09-17T15:38:05.752Z,99713.78
2022-09-17T15:40:41.652Z,99713.28
2022-09-17T15:43:31.502Z,99708.31
2022-09-17T15:46:28.028Z,99716.63
2022-09-17T15:49:04.344Z,99713.94
2022-09-17T15:51:34.180Z,99712.75
2022-09-17T15:54:04.958Z,99713.72
2022-09-17T15:56:37.488Z,99708.75
2022-09-17T15:59:21.331Z,99707.19
2022-09-17T16:01:53.313Z,99703.38
2022-09-17T16:04:31.218Z,99710.94
2022-09-17T16:06:59.134Z,99714.22
2022-09-17T16:09:47.868Z,99707.81
2022-09-17T16:12:20.142Z,99720.66
2022-09-17T16:15:03.651Z,99719.47
2022-09-17T16:17:48.291Z,99721.94
2022-09-17T16:20:23.465Z,99723.63
2022-09-17T16:22:52.253Z,99725.72
2022-09-17T16:25:23.409Z,99721.00
2022-09-17T16:28:16.973Z,99725.03
2022-09-17T16:30:46.484Z,99729.66
2022-09-17T16:33:14.378Z,99730.75
2022-09-17T16:35:42.415Z,99734.09
2022-09-17T16:38:10.692Z,99738.06
2022-09-17T16:40:43.326Z,99731.06
2022-09-17T16:43:10.219Z,99739.28
2022-09-17T16:45:36.778Z,99733.69
2022-09-17T16:48:05.586Z,99735.75
2022-09-17T16:50:33.069Z,99749.13
2022-09-17T16:53:04.707Z,99750.16
2022-09-17T16:55:31.780Z,99759.03
2022-09-17T16:57:58.834Z,99760.47
2022-09-17T17:00:26.203Z,99763.84
2022-09-17T17:02:57.319Z,99765.09
2022-09-17T17:05:25.762Z,99767.00
2022-09-17T17:07:55.246Z,99769.25
2022-09-17T17:10:23.208Z,99779.50
2022-09-17T17:12:49.773Z,99788.09
2022-09-17T17:15:16.365Z,99795.53
2022-09-17T17:17:43.151Z,99791.47
2022-09-17T17:20:10.165Z,99788.31
2022-09-17T17:22:37.550Z,99793.22
2022-09-17T17:25:06.154Z,99795.75
2022-09-17T17:27:33.541Z,99794.25
2022-09-17T17:30:02.237Z,99792.28
2022-09-17T17:32:28.764Z,99790.44
2022-09-17T17:34:55.266Z,99799.34
2022-09-17T17:37:23.243Z,99792.41
2022-09-17T17:39:49.834Z,99797.31
2022-09-17T17:42:16.386Z,99794.44
2022-09-17T17:44:43.464Z,99796.66
2022-09-17T17:47:10.302Z,99797.78
2022-09-17T17:49:36.962Z,99812.75
2022-09-17T17:52:03.525Z,99815.28
2022-09-17T17:54:30.113Z,99816.75
2022-09-17T17:56:56.667Z,99817.91
2022-09-17T17:59:23.196Z,99825.44
2022-09-17T18:01:49.851Z,99816.56
2022-09-17T18:04:16.376Z,99826.09
2022-09-17T18:06:43.772Z,99831.19
2022-09-17T18:09:10.293Z,99828.72
2022-09-17T18:11:36.927Z,99830.31
2022-09-17T18:14:03.459Z,99833.06
2022-09-17T18:16:30.373Z,99838.81
2022-09-17T18:19:01.547Z,99837.13
2022-09-17T18:21:28.315Z,99829.97
2022-09-17T18:23:54.888Z,99835.31
2022-09-17T18:26:27.083Z,99831.72
2022-09-17T18:28:53.647Z,99837.97
2022-09-17T18:31:24.388Z,99842.28
2022-09-17T18:33:56.117Z,99847.16
2022-09-17T18:36:23.085Z,99849.34
2022-09-17T18:38:52.994Z,99856.88
2022-09-17T18:41:19.912Z,99858.31
2022-09-17T18:43:46.440Z,99862.00
2022-09-17T18:46:13.089Z,99868.41
2022-09-17T18:48:39.786Z,99868.13
2022-09-17T18:51:09.942Z,99869.66
2022-09-17T18:53:39.196Z,99873.97
2022-09-17T18:56:13.327Z,99879.44
2022-09-17T18:58:39.912Z,99873.84
2022-09-17T19:01:07.552Z,99875.84
2022-09-17T19:03:34.716Z,99886.66
2022-09-17T19:06:04.160Z,99891.56
2022-09-17T19:08:30.686Z,99893.63
2022-09-17T19:10:58.545Z,99893.63
2022-09-17T19:13:26.010Z,99893.78
2022-09-17T19:15:58.058Z,99897.25
2022-09-17T19:18:24.718Z,99894.53
2022-09-17T19:20:51.222Z,99904.44
2022-09-17T19:23:17.813Z,99911.50
2022-09-17T19:25:44.387Z,99908.56
2022-09-17T19:28:10.940Z,99911.34
2022-09-17T19:30:37.458Z,99903.03
2022-09-17T19:33:04.676Z,99908.25
2022-09-17T19:35:31.963Z,99914.09
2022-09-17T19:37:58.654Z,99918.94
2022-09-17T19:40:26.020Z,99912.50
2022-09-17T19:42:54.157Z,99922.88
2022-09-17T19:45:24.921Z,99921.81
2022-09-17T19:47:56.193Z,99932.25
2022-09-17T19:50:23.258Z,99932.28
2022-09-17T19:52:49.778Z,99928.75
2022-09-17T19:55:16.515Z,99932.00
2022-09-17T19:57:43.059Z,99928.94
2022-09-17T20:00:12.799Z,99937.00
2022-09-17T20:02:40.160Z,99947.84
2022-09-17T20:05:07.027Z,99938.69
2022-09-17T20:07:34.032Z,99944.81
2022-09-17T20:10:00.576Z,99947.22
2022-09-17T20:12:27.236Z,99953.88
2022-09-17T20:14:53.752Z,99946.44
2022-09-17T20:17:20.301Z,99952.91
2022-09-17T20:19:46.853Z,99947.59
2022-09-17T20:22:13.444Z,99955.34
2022-09-17T20:24:39.952Z,99957.63
2022-09-17T20:27:06.488Z,99956.00
2022-09-17T20:29:33.020Z,99956.00
2022-09-17T20:31:59.562Z,99955.00
2022-09-17T20:34:26.436Z,99962.19
2022-09-17T20:37:06.712Z,99967.25
2022-09-17T20:39:38.975Z,99962.03
2022-09-17T20:42:05.548Z,99958.53
2022-09-17T20:44:32.127Z,99964.44
2022-09-17T20:46:59.136Z,99963.44
2022-09-17T20:49:25.715Z,99963.28
2022-09-17T20:51:52.279Z,99963.19
2022-09-17T20:54:18.830Z,99964.59
2022-09-17T20:56:46.421Z,99965.69
2022-09-17T20:59:15.365Z,99966.72
2022-09-17T21:01:45.126Z,99970.09
2022-09-17T21:04:14.955Z,99972.66
2022-09-17T21:06:42.926Z,99966.66
2022-09-17T21:09:12.196Z,99973.13
2022-09-17T21:11:38.953Z,99975.72
2022-09-17T21:14:05.711Z,99975.84
2022-09-17T21:16:32.532Z,99966.75
2022-09-17T21:19:02.356Z,99967.13
2022-09-17T21:21:29.539Z,99966.56
2022-09-17T21:24:00.894Z,99969.25
2022-09-17T21:26:28.150Z,99969.91
2022-09-17T21:28:56.403Z,99979.47
2022-09-17T21:31:31.064Z,99978.84
2022-09-17T21:34:01.171Z,99978.28
2022-09-17T21:36:30.228Z,99977.28
2022-09-17T21:38:59.839Z,99991.47
2022-09-17T21:41:27.003Z,99993.00
2022-09-17T21:43:53.733Z,100003.41
2022-09-17T21:46:25.847Z,100002.66
2022-09-17T21:48:54.656Z,99989.91
2022-09-17T21:51:30.601Z,100003.78
2022-09-17T21:54:00.227Z,100000.00
2022-09-17T21:56:27.690Z,99995.78
2022-09-17T21:58:56.530Z,99996.31
2022-09-17T22:01:27.034Z,99996.22
2022-09-17T22:03:55.880Z,99993.72
2022-09-17T22:06:25.259Z,99997.59
2022-09-17T22:08:51.973Z,100000.78
2022-09-17T22:11:22.047Z,100005.34
2022-09-17T22:13:58.739Z,100005.34
2022-09-17T22:16:28.145Z,100004.28
2022-09-17T22:18:54.781Z,100008.22
2022-09-17T22:21:24.077Z,100008.44
2022-09-17T22:23:52.521Z,100007.47
2022-09-17T22:26:22.003Z,100005.94
2022-09-17T22:28:50.143Z,100006.91
2022-09-17T22:31:17.521Z,100012.31
2022-09-17T22:33:50.364Z,100013.94
2022-09-17T22:36:21.685Z,100004.72
2022-09-17T22:38:50.614Z,100010.59
2022-09-17T22:41:20.418Z,100001.66
2022-09-17T22:43:47.923Z,100002.44
2022-09-17T22:46:18.530Z,100001.75
2022-09-17T22:48:45.526Z,100000.97
2022-09-17T22:51:12.829Z,99998.03
2022-09-17T22:53:40.487Z,99995.72
2022-09-17T22:56:10.906Z,99992.66
2022-09-17T22:58:37.906Z,100002.34
2022-09-17T23:01:08.355Z,99992.28
2022-09-17T23:03:34.872Z,99989.94
2022-09-17T23:06:03.822Z,99990.41
2022-09-17T23:08:31.098Z,99992.28
2022-09-17T23:10:57.788Z,99988.56
2022-09-17T23:13:24.334Z,99984.91
2022-09-17T23:15:50.994Z,99985.41
2022-09-17T23:18:17.754Z,99985.25
2022-09-17T23:20:44.272Z,99983.22
2022-09-17T23:23:11.375Z,99977.31
2022-09-17T23:25:37.896Z,99982.75
2022-09-17T23:28:04.408Z,99979.88
2022-09-17T23:30:31.359Z,99977.00
2022-09-17T23:32:58.799Z,99975.72
2022-09-17T23:35:25.836Z,99973.13
2022-09-17T23:37:52.354Z,99988.22
2022-09-17T23:40:18.963Z,99981.25
2022-09-17T23:42:45.544Z,99981.06
2022-09-17T23:45:12.741Z,99984.28
2022-09-17T23:47:39.246Z,99973.81
2022-09-17T23:50:06.678Z,99972.16
2022-09-17T23:52:33.198Z,99976.97
2022-09-17T23:54:59.697Z,99975.78
2022-09-17T23:57:27.646Z,99967.00
2022-09-17T23:59:54.544Z,99966.94
